createdAt,value
2023-03-17T00:01:18.748Z,7.80
2023-03-17T00:03:47.789Z,6.30
2023-03-17T00:06:21.317Z,6.10
2023-03-17T00:08:47.936Z,6.40
2023-03-17T00:11:17.583Z,8.00
2023-03-17T00:13:46.210Z,5.60
2023-03-17T00:16:27.164Z,4.90
2023-03-17T00:18:57.562Z,9.00
2023-03-17T00:21:31.337Z,7.70
2023-03-17T00:23:59.768Z,8.30
2023-03-17T00:26:28.536Z,9.50
2023-03-17T00:28:55.688Z,12.40
2023-03-17T00:31:27.712Z,13.80
2023-03-17T00:33:55.959Z,18.50
2023-03-17T00:38:52.742Z,11.30
2023-03-17T00:41:20.648Z,10.60
2023-03-17T00:43:47.391Z,10.80
2023-03-17T00:46:21.735Z,8.10
2023-03-17T00:48:48.800Z,4.30
2023-03-17T00:51:16.544Z,6.90
2023-03-17T00:53:44.224Z,6.50
2023-03-17T00:56:19.113Z,8.40
2023-03-17T00:58:47.698Z,5.50
2023-03-17T01:01:16.082Z,6.40
2023-03-17T01:03:42.967Z,9.50
2023-03-17T01:06:13.797Z,5.70
2023-03-17T01:08:42.077Z,6.30
2023-03-17T01:13:48.095Z,5.10
2023-03-17T01:16:15.684Z,6.20
2023-03-17T01:18:43.737Z,8.20
2023-03-17T01:21:10.524Z,8.10
2023-03-17T01:23:37.490Z,9.30
2023-03-17T01:26:04.813Z,9.80
2023-03-17T01:28:31.465Z,8.60
2023-03-17T01:30:58.748Z,6.60
2023-03-17T01:33:25.713Z,4.20
2023-03-17T01:35:52.554Z,6.10
2023-03-17T01:38:19.247Z,12.40
2023-03-17T01:40:52.204Z,11.00
2023-03-17T01:43:24.805Z,10.50
2023-03-17T01:46:22.025Z,8.50
2023-03-17T01:49:33.222Z,7.70
2023-03-17T01:52:07.622Z,12.50
2023-03-17T01:54:50.495Z,14.90
2023-03-17T01:57:28.663Z,12.40
2023-03-17T02:00:12.638Z,11.20
2023-03-17T02:02:46.955Z,8.40
2023-03-17T02:05:17.967Z,8.40
2023-03-17T02:07:45.140Z,5.10
2023-03-17T02:10:15.679Z,5.60
2023-03-17T02:12:47.936Z,6.20
2023-03-17T02:15:15.456Z,6.10
2023-03-17T02:17:42.521Z,7.60
2023-03-17T02:20:32.766Z,6.60
2023-03-17T02:23:01.118Z,13.30
2023-03-17T02:25:30.823Z,28.40
2023-03-17T02:28:06.599Z,27.80
2023-03-17T02:30:35.212Z,41.80
2023-03-17T02:33:03.615Z,32.80
2023-03-17T02:35:31.485Z,50.40
2023-03-17T02:37:58.256Z,59.50
2023-03-17T02:40:25.047Z,46.70
2023-03-17T02:42:51.963Z,27.90
2023-03-17T02:45:18.714Z,11.10
2023-03-17T02:47:45.974Z,12.10
2023-03-17T02:50:22.925Z,9.50
2023-03-17T02:52:50.736Z,16.00
2023-03-17T02:55:17.853Z,22.00
2023-03-17T02:57:44.682Z,29.00
2023-03-17T03:00:14.263Z,19.40
2023-03-17T03:02:41.412Z,17.30
2023-03-17T03:05:09.641Z,12.70
2023-03-17T03:10:04.099Z,20.30
2023-03-17T03:12:30.750Z,14.00
2023-03-17T03:14:57.341Z,6.30
2023-03-17T03:17:24.189Z,9.30
2023-03-17T03:19:50.774Z,10.10
2023-03-17T03:22:17.367Z,15.70
2023-03-17T03:24:43.973Z,26.40
2023-03-17T03:27:10.947Z,34.00
2023-03-17T03:29:38.282Z,17.90
2023-03-17T03:32:05.578Z,18.50
2023-03-17T03:34:32.242Z,11.70
2023-03-17T03:36:58.823Z,10.80
2023-03-17T03:39:25.714Z,15.20
2023-03-17T03:41:52.300Z,19.00
2023-03-17T03:44:18.937Z,15.40
2023-03-17T03:46:45.823Z,13.20
2023-03-17T03:49:12.540Z,9.00
2023-03-17T03:51:39.092Z,5.90
2023-03-17T03:54:05.810Z,4.80
2023-03-17T03:56:32.968Z,4.60
2023-03-17T03:59:01.097Z,4.80
2023-03-17T04:03:54.978Z,7.30
2023-03-17T04:06:21.699Z,5.20
2023-03-17T04:08:48.315Z,5.30
2023-03-17T04:11:15.467Z,5.00
2023-03-17T04:13:42.063Z,23.80
2023-03-17T04:16:09.141Z,7.80
2023-03-17T04:18:36.296Z,7.10
2023-03-17T04:21:03.093Z,5.60
2023-03-17T04:23:31.442Z,5.30
2023-03-17T04:25:58.484Z,6.40
2023-03-17T04:28:25.094Z,5.50
2023-03-17T04:30:51.811Z,5.30
2023-03-17T04:33:20.291Z,6.70
2023-03-17T04:35:47.218Z,4.50
2023-03-17T04:38:14.342Z,5.50
2023-03-17T04:40:41.593Z,4.90
2023-03-17T04:43:10.282Z,5.40
2023-03-17T04:45:37.455Z,4.70
2023-03-17T04:48:05.248Z,3.90
2023-03-17T04:50:33.391Z,4.90
2023-03-17T04:53:00.167Z,13.00
2023-03-17T04:55:27.629Z,15.90
2023-03-17T04:57:54.287Z,13.50
2023-03-17T05:00:21.376Z,15.50
2023-03-17T05:02:48.018Z,15.80
2023-03-17T05:05:14.601Z,9.60
2023-03-17T05:07:41.872Z,9.60
2023-03-17T05:10:09.877Z,11.60
2023-03-17T05:15:05.271Z,5.70
2023-03-17T05:17:31.861Z,7.10
2023-03-17T05:19:58.433Z,10.40
2023-03-17T05:22:25.062Z,9.00
2023-03-17T05:24:51.633Z,20.20
2023-03-17T05:27:18.247Z,17.20
2023-03-17T05:29:44.874Z,20.80
2023-03-17T05:32:11.676Z,14.80
2023-03-17T05:34:38.277Z,12.80
2023-03-17T05:37:04.885Z,8.70
2023-03-17T05:39:32.880Z,7.50
2023-03-17T05:41:59.436Z,30.50
2023-03-17T05:44:26.237Z,48.60
2023-03-17T05:46:52.860Z,35.20
2023-03-17T05:49:20.326Z,33.30
2023-03-17T05:51:47.534Z,26.50
2023-03-17T05:54:14.140Z,33.00
2023-03-17T05:56:42.730Z,30.80
2023-03-17T05:59:10.683Z,25.70
2023-03-17T06:01:37.337Z,13.90
2023-03-17T06:04:04.552Z,11.90
2023-03-17T06:06:31.185Z,7.60
2023-03-17T06:08:58.131Z,5.10
2023-03-17T06:11:24.739Z,6.50
2023-03-17T06:13:52.104Z,7.70
2023-03-17T06:16:19.851Z,13.70
2023-03-17T06:18:46.544Z,11.10
2023-03-17T06:21:14.324Z,6.50
2023-03-17T06:23:41.040Z,5.40
2023-03-17T06:26:07.678Z,5.00
2023-03-17T06:28:34.418Z,6.40
2023-03-17T06:31:01.172Z,12.00
2023-03-17T06:33:28.348Z,8.60
2023-03-17T06:35:54.967Z,5.20
2023-03-17T06:38:21.886Z,4.30
2023-03-17T06:40:48.493Z,5.80
2023-03-17T06:43:15.117Z,4.90
2023-03-17T06:45:42.151Z,5.00
2023-03-17T06:48:09.356Z,5.80
2023-03-17T06:50:36.295Z,6.50
2023-03-17T06:53:03.671Z,6.40
2023-03-17T06:55:32.014Z,5.40
2023-03-17T06:57:59.095Z,5.20
2023-03-17T07:00:27.677Z,5.70
2023-03-17T07:02:54.336Z,5.70
2023-03-17T07:05:20.947Z,6.10
2023-03-17T07:07:47.806Z,13.60
2023-03-17T07:10:15.960Z,8.50
2023-03-17T07:15:12.530Z,5.30
2023-03-17T07:17:39.204Z,4.60
2023-03-17T07:20:07.113Z,4.80
2023-03-17T07:22:33.777Z,4.20
2023-03-17T07:25:00.369Z,5.60
2023-03-17T07:27:27.258Z,8.00
2023-03-17T07:29:53.947Z,5.50
2023-03-17T07:32:20.700Z,6.70
2023-03-17T07:34:47.560Z,7.80
2023-03-17T07:37:14.629Z,7.90
2023-03-17T07:39:41.998Z,6.50
2023-03-17T07:42:14.851Z,8.50
2023-03-17T07:44:42.160Z,5.40
2023-03-17T07:47:11.433Z,5.10
2023-03-17T07:49:42.009Z,6.10
2023-03-17T07:52:11.219Z,5.40
2023-03-17T07:54:42.257Z,7.90
2023-03-17T07:57:09.600Z,7.50
2023-03-17T07:59:36.484Z,6.60
2023-03-17T08:02:03.857Z,5.80
2023-03-17T08:04:30.776Z,6.20
2023-03-17T08:06:57.668Z,6.10
2023-03-17T08:09:24.553Z,7.40
2023-03-17T08:11:51.612Z,7.20
2023-03-17T08:14:18.540Z,8.50
2023-03-17T08:16:45.276Z,7.20
2023-03-17T08:19:12.266Z,5.70
2023-03-17T08:21:38.916Z,7.10
2023-03-17T08:24:06.642Z,6.80
2023-03-17T08:26:34.145Z,4.80
2023-03-17T08:29:01.549Z,6.50
2023-03-17T08:31:28.579Z,6.30
2023-03-17T08:33:57.303Z,8.70
2023-03-17T08:36:24.700Z,7.30
2023-03-17T08:38:52.598Z,5.80
2023-03-17T08:41:24.663Z,8.40
2023-03-17T08:43:51.754Z,5.10
2023-03-17T08:46:30.516Z,7.00
2023-03-17T08:48:59.613Z,9.50
2023-03-17T08:51:31.259Z,4.50
2023-03-17T08:53:59.837Z,5.20
2023-03-17T08:56:27.550Z,7.30
2023-03-17T08:58:54.474Z,5.50
2023-03-17T09:01:23.071Z,5.00
2023-03-17T09:03:53.356Z,5.60
2023-03-17T09:06:20.203Z,6.90
2023-03-17T09:08:47.629Z,6.60
2023-03-17T09:11:18.319Z,6.30
2023-03-17T09:13:47.523Z,7.50
2023-03-17T09:16:16.284Z,6.70
2023-03-17T09:18:43.772Z,6.00
2023-03-17T09:21:13.122Z,6.10
2023-03-17T09:23:41.138Z,8.20
2023-03-17T09:26:09.023Z,7.40
2023-03-17T09:28:36.276Z,6.30
2023-03-17T09:31:06.342Z,5.20
2023-03-17T09:33:33.348Z,6.70
2023-03-17T09:36:00.626Z,4.80
2023-03-17T09:38:28.380Z,5.40
2023-03-17T09:41:12.167Z,6.90
2023-03-17T09:44:12.690Z,5.70
2023-03-17T09:47:10.296Z,9.40
2023-03-17T09:49:49.640Z,8.10
2023-03-17T09:52:23.081Z,5.00
2023-03-17T09:54:50.305Z,7.50
2023-03-17T09:57:26.375Z,5.50
2023-03-17T10:00:01.453Z,6.40
2023-03-17T10:02:32.657Z,5.30
2023-03-17T10:05:32.380Z,6.60
2023-03-17T10:08:28.880Z,5.20
2023-03-17T10:11:36.318Z,6.10
2023-03-17T10:14:23.749Z,7.00
2023-03-17T10:17:16.582Z,7.10
2023-03-17T10:19:56.720Z,8.60
2023-03-17T10:22:56.001Z,8.20
2023-03-17T10:25:44.926Z,5.90
2023-03-17T10:28:30.668Z,7.10
2023-03-17T10:31:32.890Z,6.10
2023-03-17T10:34:18.686Z,6.00
2023-03-17T10:36:55.294Z,6.30
2023-03-17T10:39:24.692Z,6.20
2023-03-17T10:42:07.685Z,9.30
2023-03-17T10:44:59.051Z,8.20
2023-03-17T10:47:38.264Z,8.60
2023-03-17T10:50:30.486Z,7.60
2023-03-17T10:53:08.337Z,5.60
2023-03-17T10:55:37.560Z,7.20
2023-03-17T10:58:07.765Z,8.40
2023-03-17T11:00:38.566Z,11.00
2023-03-17T11:03:18.433Z,6.00
2023-03-17T11:06:14.374Z,6.10
2023-03-17T11:08:46.748Z,8.10
2023-03-17T11:11:49.097Z,7.50
2023-03-17T11:14:19.398Z,8.20
2023-03-17T11:17:13.470Z,6.90
2023-03-17T11:20:15.450Z,7.50
2023-03-17T11:22:57.279Z,9.00
2023-03-17T11:25:27.180Z,7.40
2023-03-17T11:28:19.025Z,8.50
2023-03-17T11:31:06.543Z,7.80
2023-03-17T11:34:20.011Z,8.30
2023-03-17T11:37:11.711Z,6.20
2023-03-17T11:40:10.671Z,7.60
2023-03-17T11:43:01.002Z,7.60
2023-03-17T11:45:37.495Z,8.90
2023-03-17T11:48:22.653Z,8.00
2023-03-17T11:51:02.539Z,5.60
2023-03-17T11:54:05.083Z,5.90
2023-03-17T11:56:51.771Z,7.20
2023-03-17T11:59:39.374Z,8.70
2023-03-17T12:02:15.050Z,6.80
2023-03-17T12:05:13.377Z,7.30
2023-03-17T12:07:47.964Z,9.40
2023-03-17T12:10:41.542Z,7.40
2023-03-17T12:13:23.316Z,7.40
2023-03-17T12:16:05.472Z,6.30
2023-03-17T12:18:37.591Z,7.80
2023-03-17T12:21:43.138Z,5.90
2023-03-17T12:24:40.359Z,8.40
2023-03-17T12:27:15.884Z,5.50
2023-03-17T12:29:51.695Z,8.30
2023-03-17T12:32:26.200Z,8.70
2023-03-17T12:34:59.838Z,6.10
2023-03-17T12:37:30.001Z,7.00
2023-03-17T12:40:26.192Z,5.50
2023-03-17T12:43:22.909Z,7.40
2023-03-17T12:46:55.887Z,7.90
2023-03-17T12:49:30.460Z,8.00
2023-03-17T12:52:13.449Z,5.50
2023-03-17T12:54:47.914Z,6.80
2023-03-17T12:57:28.724Z,8.40
2023-03-17T13:00:29.707Z,7.60
2023-03-17T13:03:23.837Z,7.80
2023-03-17T13:06:02.154Z,6.20
2023-03-17T13:08:56.337Z,11.00
2023-03-17T13:11:47.470Z,5.10
2023-03-17T13:14:27.257Z,5.90
2023-03-17T13:17:25.603Z,4.80
2023-03-17T13:20:09.840Z,5.20
2023-03-17T13:23:21.210Z,5.90
2023-03-17T13:25:53.831Z,6.00
2023-03-17T13:28:41.440Z,4.70
2023-03-17T13:31:34.008Z,7.30
2023-03-17T13:34:15.385Z,5.10
2023-03-17T13:37:05.465Z,5.40
2023-03-17T13:40:25.235Z,4.60
2023-03-17T13:43:37.057Z,5.50
2023-03-17T13:46:38.950Z,5.70
2023-03-17T13:49:18.327Z,4.30
2023-03-17T13:52:11.544Z,5.80
2023-03-17T13:54:59.717Z,4.50
2023-03-17T13:57:29.593Z,5.40
2023-03-17T14:00:25.816Z,6.60
2023-03-17T14:03:13.117Z,5.70
2023-03-17T14:05:42.594Z,6.20
2023-03-17T14:08:29.783Z,3.90
2023-03-17T14:11:38.881Z,4.40
2023-03-17T14:14:37.910Z,5.60
2023-03-17T14:17:44.586Z,5.80
2023-03-17T14:20:17.064Z,4.40
2023-03-17T14:22:48.199Z,3.90
2023-03-17T14:25:26.336Z,5.40
2023-03-17T14:27:57.495Z,6.60
2023-03-17T14:30:29.683Z,5.00
2023-03-17T14:33:20.740Z,4.90
2023-03-17T14:35:52.044Z,7.10
2023-03-17T14:38:22.012Z,5.70
2023-03-17T14:40:59.097Z,6.30
2023-03-17T14:43:26.266Z,5.40
2023-03-17T14:45:59.798Z,4.40
2023-03-17T14:48:32.478Z,4.80
2023-03-17T14:51:25.397Z,4.20
2023-03-17T14:53:56.847Z,4.10
2023-03-17T14:56:31.969Z,4.50
2023-03-17T14:59:16.727Z,6.50
2023-03-17T15:01:48.476Z,6.40
2023-03-17T15:04:33.548Z,4.70
2023-03-17T15:07:06.662Z,5.00
2023-03-17T15:09:41.118Z,4.90
2023-03-17T15:12:24.714Z,5.60
2023-03-17T15:14:56.370Z,4.70
2023-03-17T15:17:31.084Z,4.10
2023-03-17T15:20:04.834Z,7.20
2023-03-17T15:22:34.182Z,4.60
2023-03-17T15:25:16.174Z,6.50
2023-03-17T15:27:45.298Z,4.00
2023-03-17T15:30:12.967Z,5.10
2023-03-17T15:32:40.825Z,5.50
2023-03-17T15:37:39.667Z,4.60
2023-03-17T15:40:09.324Z,5.40
2023-03-17T15:42:39.536Z,4.60
2023-03-17T15:45:07.856Z,5.20
2023-03-17T15:47:39.710Z,7.20
2023-03-17T15:50:25.725Z,6.70
2023-03-17T15:52:58.654Z,3.80
2023-03-17T15:55:30.646Z,6.90
2023-03-17T15:57:58.684Z,5.30
2023-03-17T16:00:29.821Z,7.10
2023-03-17T16:03:04.266Z,4.50
2023-03-17T16:05:34.676Z,6.10
2023-03-17T16:08:02.262Z,8.70
2023-03-17T16:10:32.840Z,6.40
2023-03-17T16:12:59.852Z,8.80
2023-03-17T16:15:31.434Z,6.90
2023-03-17T16:18:02.471Z,6.00
2023-03-17T16:20:43.091Z,5.40
2023-03-17T16:23:21.858Z,5.90
2023-03-17T16:25:49.566Z,5.20
2023-03-17T16:28:31.139Z,4.90
2023-03-17T16:31:00.550Z,6.80
2023-03-17T16:33:37.006Z,5.30
2023-03-17T16:36:04.355Z,5.70
2023-03-17T16:38:33.997Z,6.70
2023-03-17T16:41:14.423Z,5.60
2023-03-17T16:43:45.110Z,5.90
2023-03-17T16:46:13.037Z,9.00
2023-03-17T16:51:06.905Z,4.10
2023-03-17T16:53:33.529Z,11.80
2023-03-17T16:56:00.562Z,7.00
2023-03-17T16:58:32.877Z,6.50
2023-03-17T17:01:04.520Z,5.50
2023-03-17T17:03:31.486Z,6.90
2023-03-17T17:05:58.533Z,6.40
2023-03-17T17:08:25.274Z,5.10
2023-03-17T17:10:52.235Z,13.40
2023-03-17T17:13:18.912Z,5.30
2023-03-17T17:15:46.200Z,6.80
2023-03-17T17:18:24.679Z,5.90
2023-03-17T17:20:53.893Z,7.10
2023-03-17T17:23:26.683Z,6.00
2023-03-17T17:25:54.418Z,5.70
2023-03-17T17:28:24.404Z,6.90
2023-03-17T17:30:53.095Z,6.00
2023-03-17T17:33:21.302Z,5.40
2023-03-17T17:35:49.833Z,5.50
2023-03-17T17:38:28.326Z,5.50
2023-03-17T17:40:58.036Z,6.90
2023-03-17T17:43:25.460Z,5.90
2023-03-17T17:45:53.499Z,6.80
2023-03-17T17:50:50.692Z,6.50
2023-03-17T17:55:47.821Z,6.40
2023-03-17T17:58:25.312Z,6.30
2023-03-17T18:00:55.285Z,7.60
2023-03-17T18:03:25.167Z,7.30
2023-03-17T18:05:56.646Z,5.80
2023-03-17T18:08:25.511Z,11.20
2023-03-17T18:10:52.702Z,7.30
2023-03-17T18:13:19.360Z,9.70
2023-03-17T18:15:46.197Z,6.20
2023-03-17T18:18:12.818Z,7.40
2023-03-17T18:20:40.096Z,7.50
2023-03-17T18:23:08.029Z,7.20
2023-03-17T18:28:01.847Z,7.00
2023-03-17T18:30:31.570Z,10.70
2023-03-17T18:33:06.401Z,7.10
2023-03-17T18:35:34.094Z,8.30
2023-03-17T18:38:01.611Z,8.20
2023-03-17T18:40:28.848Z,9.40
2023-03-17T18:42:55.927Z,7.00
2023-03-17T18:45:23.113Z,10.80
2023-03-17T18:47:49.823Z,8.30
2023-03-17T18:50:17.561Z,8.70
2023-03-17T18:52:45.752Z,10.60
2023-03-17T18:55:15.099Z,9.40
2023-03-17T18:57:44.638Z,8.90
2023-03-17T19:00:16.276Z,9.80
2023-03-17T19:02:43.131Z,8.50
2023-03-17T19:05:11.835Z,8.10
2023-03-17T19:07:40.486Z,8.10
2023-03-17T19:10:10.608Z,9.30
2023-03-17T19:12:38.229Z,7.90
2023-03-17T19:15:07.351Z,6.70
2023-03-17T19:17:35.118Z,7.40
2023-03-17T19:20:01.856Z,8.00
2023-03-17T19:22:28.473Z,6.10
2023-03-17T19:24:55.475Z,8.50
2023-03-17T19:27:22.268Z,7.20
2023-03-17T19:29:48.922Z,8.10
2023-03-17T19:32:16.637Z,8.20
2023-03-17T19:34:43.787Z,7.10
2023-03-17T19:37:11.037Z,7.40
2023-03-17T19:39:37.716Z,7.20
2023-03-17T19:42:04.400Z,10.80
2023-03-17T19:44:31.027Z,6.90
2023-03-17T19:46:57.865Z,7.30
2023-03-17T19:49:24.908Z,8.50
2023-03-17T19:51:52.390Z,6.40
2023-03-17T19:54:19.107Z,8.40
2023-03-17T19:56:48.305Z,8.10
2023-03-17T19:59:16.917Z,9.20
2023-03-17T20:01:43.540Z,8.50
2023-03-17T20:04:13.934Z,8.10
2023-03-17T20:06:40.705Z,7.30
2023-03-17T20:09:08.791Z,7.20
2023-03-17T20:14:03.103Z,8.30
2023-03-17T20:16:33.479Z,10.10
2023-03-17T20:19:01.311Z,7.40
2023-03-17T20:21:28.560Z,6.90
2023-03-17T20:23:55.275Z,9.20
2023-03-17T20:26:21.954Z,9.20
2023-03-17T20:28:49.078Z,10.00
2023-03-17T20:31:16.021Z,7.40
2023-03-17T20:33:42.654Z,7.90
2023-03-17T20:36:10.189Z,7.40
2023-03-17T20:38:38.818Z,8.40
2023-03-17T20:41:12.823Z,8.20
2023-03-17T20:43:41.727Z,7.30
2023-03-17T20:46:15.588Z,10.60
2023-03-17T20:48:43.245Z,7.10
2023-03-17T20:51:16.456Z,8.10
2023-03-17T20:53:46.218Z,7.30
2023-03-17T20:56:19.754Z,7.30
2023-03-17T20:58:48.460Z,6.80
2023-03-17T21:01:20.449Z,7.50
2023-03-17T21:03:49.651Z,7.90
2023-03-17T21:06:18.288Z,8.40
2023-03-17T21:08:46.211Z,8.80
2023-03-17T21:13:47.942Z,9.20
2023-03-17T21:16:27.707Z,8.80
2023-03-17T21:18:55.111Z,7.10
2023-03-17T21:21:23.011Z,8.70
2023-03-17T21:23:49.728Z,7.20
2023-03-17T21:26:16.552Z,8.00
2023-03-17T21:28:43.412Z,7.50
2023-03-17T21:31:12.420Z,8.10
2023-03-17T21:33:39.719Z,8.30
2023-03-17T21:36:07.559Z,8.10
2023-03-17T21:38:34.544Z,7.90
2023-03-17T21:41:30.733Z,11.20
2023-03-17T21:43:58.051Z,7.30
2023-03-17T21:46:25.598Z,7.60
2023-03-17T21:48:54.108Z,7.40
2023-03-17T21:51:20.794Z,9.80
2023-03-17T21:53:48.177Z,9.20
2023-03-17T21:56:14.867Z,8.10
2023-03-17T21:58:41.510Z,9.40
2023-03-17T22:01:10.055Z,7.30
2023-03-17T22:03:39.539Z,8.70
2023-03-17T22:06:07.125Z,10.10
2023-03-17T22:08:34.588Z,7.00
2023-03-17T22:11:08.408Z,8.30
2023-03-17T22:13:36.015Z,9.60
2023-03-17T22:16:04.500Z,15.90
2023-03-17T22:18:32.456Z,12.00
2023-03-17T22:20:59.890Z,8.80
2023-03-17T22:23:27.792Z,10.30
2023-03-17T22:25:56.479Z,11.90
2023-03-17T22:28:24.339Z,11.70
2023-03-17T22:30:51.507Z,13.30
2023-03-17T22:33:18.160Z,12.00
2023-03-17T22:35:44.851Z,11.00
2023-03-17T22:38:13.022Z,11.20
2023-03-17T22:43:07.353Z,19.40
2023-03-17T22:45:34.193Z,18.00
2023-03-17T22:48:01.282Z,23.50
2023-03-17T22:50:28.377Z,13.60
2023-03-17T22:52:55.019Z,16.60
2023-03-17T22:55:21.696Z,16.40
2023-03-17T22:57:48.653Z,19.60
2023-03-17T23:00:17.569Z,19.90
2023-03-17T23:02:46.293Z,28.90
2023-03-17T23:05:13.651Z,45.90
2023-03-17T23:07:50.493Z,28.20
2023-03-17T23:10:25.224Z,12.90
2023-03-17T23:12:52.730Z,11.90
2023-03-17T23:15:21.056Z,15.80
2023-03-17T23:17:48.057Z,11.90
2023-03-17T23:20:15.790Z,10.20
2023-03-17T23:22:42.959Z,13.80
2023-03-17T23:25:10.390Z,8.60
2023-03-17T23:27:37.020Z,9.40
2023-03-17T23:30:05.739Z,14.20
2023-03-17T23:32:32.820Z,13.00
2023-03-17T23:34:59.906Z,11.70
2023-03-17T23:37:27.413Z,11.70
2023-03-17T23:39:54.980Z,18.30
2023-03-17T23:42:22.475Z,25.70
2023-03-17T23:44:49.210Z,22.40
2023-03-17T23:47:16.991Z,19.00
2023-03-17T23:49:43.919Z,18.70
2023-03-17T23:52:11.399Z,18.30
2023-03-17T23:54:38.938Z,14.40
2023-03-17T23:57:06.531Z,11.10
2023-03-17T23:59:35.448Z,10.60
